Coventryville, New York
Current Conditions -  °F | °C
As of 7:53 AM on Friday 19 Dec 2014 (Local Time) from KBGM Reporting Station
Light Snow Light Snow  
Wind Chill: 12°   Ceiling: 700
Heat Index: 23°   Visibility: 8mi
Dew Point: 20°   Wind: 12mph
Humidity: 88%   Direction: 330°NNW
Pressure: 30.01"   Gusts: NA
Location:  42.3372°N, 75.5118°W
Report Text: KBGM 191253Z 33010KT 8SM -SN BKN007 OVC012 M05/M07 A3001 RMK AO2 CIG 005V009 SLP183 P0001 T10501067 $
Loading
Personal Weather Stations






























Interactive Weather Map New forecast layout! Learn more

10-Day Weather Forecast

Advertisements
Track Severe Weather on mobile